sensor_id;sensor_type;location;lat;lon;timestamp;pressure;altitude;pressure_sealevel;temperature;humidity
27805;BME280;15183;51.350;11.102;2022-10-23T00:01:40;100201.59;;;15.32;68.98
27805;BME280;15183;51.350;11.102;2022-10-23T00:04:18;100206.84;;;15.44;68.38
27805;BME280;15183;51.350;11.102;2022-10-23T00:06:46;100205.41;;;15.36;68.92
27805;BME280;15183;51.350;11.102;2022-10-23T00:09:14;100125.81;;;14.88;68.62
27805;BME280;15183;51.350;11.102;2022-10-23T00:11:43;100212.41;;;15.42;68.69
27805;BME280;15183;51.350;11.102;2022-10-23T00:14:33;100159.50;;;14.95;68.85
27805;BME280;15183;51.350;11.102;2022-10-23T00:17:00;100133.59;;;14.73;69.13
27805;BME280;15183;51.350;11.102;2022-10-23T00:19:26;100205.34;;;15.31;69.28
27805;BME280;15183;51.350;11.102;2022-10-23T00:21:53;100209.69;;;15.37;69.25
27805;BME280;15183;51.350;11.102;2022-10-23T00:24:25;100158.84;;;15.04;69.33
27805;BME280;15183;51.350;11.102;2022-10-23T00:26:52;100174.41;;;15.13;68.69
27805;BME280;15183;51.350;11.102;2022-10-23T00:29:28;100221.19;;;15.38;68.70
27805;BME280;15183;51.350;11.102;2022-10-23T00:31:54;100191.47;;;15.12;68.93
27805;BME280;15183;51.350;11.102;2022-10-23T00:34:20;100150.91;;;14.70;69.03
27805;BME280;15183;51.350;11.102;2022-10-23T00:36:50;100211.88;;;15.01;68.93
27805;BME280;15183;51.350;11.102;2022-10-23T00:39:16;100227.28;;;15.16;69.59
27805;BME280;15183;51.350;11.102;2022-10-23T00:41:43;100219.28;;;15.16;69.62
27805;BME280;15183;51.350;11.102;2022-10-23T00:46:48;100199.34;;;15.01;69.65
27805;BME280;15183;51.350;11.102;2022-10-23T00:49:15;100223.84;;;15.15;69.78
27805;BME280;15183;51.350;11.102;2022-10-23T00:51:46;100182.56;;;14.84;69.33
27805;BME280;15183;51.350;11.102;2022-10-23T00:54:17;100189.84;;;14.88;69.62
27805;BME280;15183;51.350;11.102;2022-10-23T00:56:45;100222.00;;;14.99;69.16
27805;BME280;15183;51.350;11.102;2022-10-23T00:59:15;100226.63;;;14.86;69.40
27805;BME280;15183;51.350;11.102;2022-10-23T01:01:41;100169.97;;;14.28;69.39
27805;BME280;15183;51.350;11.102;2022-10-23T01:04:09;100198.47;;;14.44;70.42
27805;BME280;15183;51.350;11.102;2022-10-23T01:17:55;100203.97;;;14.72;70.28
27805;BME280;15183;51.350;11.102;2022-10-23T01:20:44;100198.31;;;14.68;70.52
27805;BME280;15183;51.350;11.102;2022-10-23T01:28:29;100189.38;;;14.74;70.51
27805;BME280;15183;51.350;11.102;2022-10-23T01:31:01;100194.69;;;14.74;70.12
27805;BME280;15183;51.350;11.102;2022-10-23T01:33:39;100213.84;;;14.88;69.80
27805;BME280;15183;51.350;11.102;2022-10-23T01:36:12;100111.72;;;14.37;70.21
27805;BME280;15183;51.350;11.102;2022-10-23T01:38:57;100158.91;;;14.70;69.62
27805;BME280;15183;51.350;11.102;2022-10-23T01:41:32;100204.84;;;14.95;69.93
27805;BME280;15183;51.350;11.102;2022-10-23T01:44:21;100192.50;;;14.88;69.65
27805;BME280;15183;51.350;11.102;2022-10-23T01:46:49;100194.41;;;14.93;69.92
27805;BME280;15183;51.350;11.102;2022-10-23T01:49:20;100197.66;;;14.95;69.69
27805;BME280;15183;51.350;11.102;2022-10-23T01:51:53;100163.50;;;14.75;69.67
27805;BME280;15183;51.350;11.102;2022-10-23T01:54:25;100152.41;;;14.66;69.36
27805;BME280;15183;51.350;11.102;2022-10-23T01:56:54;100159.69;;;14.71;69.51
27805;BME280;15183;51.350;11.102;2022-10-23T01:59:29;100193.19;;;15.01;69.39
27805;BME280;15183;51.350;11.102;2022-10-23T02:01:58;100189.88;;;15.11;69.11
27805;BME280;15183;51.350;11.102;2022-10-23T02:07:19;100090.56;;;14.47;68.61
27805;BME280;15183;51.350;11.102;2022-10-23T02:09:45;100169.13;;;14.96;68.96
27805;BME280;15183;51.350;11.102;2022-10-23T02:20:47;100145.38;;;14.77;68.97
27805;BME280;15183;51.350;11.102;2022-10-23T02:26:19;100071.28;;;14.23;68.71
27805;BME280;15183;51.350;11.102;2022-10-23T02:29:27;100149.44;;;14.80;68.58
27805;BME280;15183;51.350;11.102;2022-10-23T02:31:56;100162.66;;;14.92;68.57
27805;BME280;15183;51.350;11.102;2022-10-23T02:34:22;100150.25;;;14.80;68.40
27805;BME280;15183;51.350;11.102;2022-10-23T02:36:49;100160.22;;;14.90;68.66
27805;BME280;15183;51.350;11.102;2022-10-23T02:39:16;100165.25;;;14.86;68.29
27805;BME280;15183;51.350;11.102;2022-10-23T02:41:48;100100.59;;;14.40;68.60
27805;BME280;15183;51.350;11.102;2022-10-23T02:50:32;100168.72;;;14.70;68.53
27805;BME280;15183;51.350;11.102;2022-10-23T02:53:40;100165.69;;;14.61;68.59
27805;BME280;15183;51.350;11.102;2022-10-23T02:56:22;100178.19;;;14.60;68.53
27805;BME280;15183;51.350;11.102;2022-10-23T02:59:06;100179.97;;;14.55;68.00
27805;BME280;15183;51.350;11.102;2022-10-23T03:02:25;100137.50;;;14.31;68.29
27805;BME280;15183;51.350;11.102;2022-10-23T03:04:55;100152.59;;;14.42;68.38
27805;BME280;15183;51.350;11.102;2022-10-23T03:07:25;100165.84;;;14.54;68.42
27805;BME280;15183;51.350;11.102;2022-10-23T03:09:52;100089.28;;;13.98;67.80
27805;BME280;15183;51.350;11.102;2022-10-23T03:12:18;100096.78;;;14.01;68.03
27805;BME280;15183;51.350;11.102;2022-10-23T03:14:45;100150.34;;;14.34;67.96
27805;BME280;15183;51.350;11.102;2022-10-23T03:17:11;100149.53;;;14.33;68.14
27805;BME280;15183;51.350;11.102;2022-10-23T03:19:38;100132.59;;;14.23;68.14
27805;BME280;15183;51.350;11.102;2022-10-23T03:22:04;100128.88;;;14.24;68.02
27805;BME280;15183;51.350;11.102;2022-10-23T03:24:31;100145.81;;;14.35;68.21
27805;BME280;15183;51.350;11.102;2022-10-23T03:26:57;100144.44;;;14.32;68.11
27805;BME280;15183;51.350;11.102;2022-10-23T03:29:23;100119.00;;;14.07;68.09
27805;BME280;15183;51.350;11.102;2022-10-23T03:31:50;100108.47;;;14.00;68.18
27805;BME280;15183;51.350;11.102;2022-10-23T03:34:16;100145.78;;;14.17;68.21
27805;BME280;15183;51.350;11.102;2022-10-23T03:36:44;100138.69;;;14.06;68.31
27805;BME280;15183;51.350;11.102;2022-10-23T03:39:11;100147.59;;;14.12;68.48
27805;BME280;15183;51.350;11.102;2022-10-23T03:41:37;100108.81;;;13.87;68.41
27805;BME280;15183;51.350;11.102;2022-10-23T03:44:04;100081.41;;;13.57;68.09
27805;BME280;15183;51.350;11.102;2022-10-23T03:46:30;100113.22;;;13.64;68.34
27805;BME280;15183;51.350;11.102;2022-10-23T03:48:57;100097.91;;;13.42;68.80
27805;BME280;15183;51.350;11.102;2022-10-23T03:51:26;100135.22;;;13.59;68.94
27805;BME280;15183;51.350;11.102;2022-10-23T03:53:52;100148.53;;;13.59;69.31
27805;BME280;15183;51.350;11.102;2022-10-23T03:56:19;100149.09;;;13.62;69.51
27805;BME280;15183;51.350;11.102;2022-10-23T03:58:45;100147.31;;;13.50;69.63
27805;BME280;15183;51.350;11.102;2022-10-23T04:01:13;100163.81;;;13.64;70.33
27805;BME280;15183;51.350;11.102;2022-10-23T04:03:39;100083.13;;;13.23;69.61
27805;BME280;15183;51.350;11.102;2022-10-23T04:06:06;100133.34;;;13.60;69.92
27805;BME280;15183;51.350;11.102;2022-10-23T04:08:33;100091.56;;;13.31;70.03
27805;BME280;15183;51.350;11.102;2022-10-23T04:10:59;100056.69;;;13.16;69.62
27805;BME280;15183;51.350;11.102;2022-10-23T04:13:26;100100.66;;;13.48;69.65
27805;BME280;15183;51.350;11.102;2022-10-23T04:15:52;100059.44;;;13.21;69.53
27805;BME280;15183;51.350;11.102;2022-10-23T04:18:19;100134.22;;;13.78;69.10
27805;BME280;15183;51.350;11.102;2022-10-23T04:20:49;100126.75;;;13.63;68.92
27805;BME280;15183;51.350;11.102;2022-10-23T04:23:16;100147.03;;;13.64;68.89
27805;BME280;15183;51.350;11.102;2022-10-23T04:25:43;100130.03;;;13.53;69.16
27805;BME280;15183;51.350;11.102;2022-10-23T04:28:09;100138.47;;;13.62;69.39
27805;BME280;15183;51.350;11.102;2022-10-23T04:30:36;100140.41;;;13.66;69.14
27805;BME280;15183;51.350;11.102;2022-10-23T04:33:02;100156.22;;;13.73;69.13
27805;BME280;15183;51.350;11.102;2022-10-23T04:35:29;100146.50;;;13.79;69.34
27805;BME280;15183;51.350;11.102;2022-10-23T04:37:55;100079.84;;;13.44;68.95
27805;BME280;15183;51.350;11.102;2022-10-23T04:40:21;100147.56;;;13.95;69.07
27805;BME280;15183;51.350;11.102;2022-10-23T04:42:48;100138.28;;;13.97;68.79
27805;BME280;15183;51.350;11.102;2022-10-23T04:45:14;100133.28;;;14.01;69.02
27805;BME280;15183;51.350;11.102;2022-10-23T04:47:41;100047.69;;;13.46;68.91
27805;BME280;15183;51.350;11.102;2022-10-23T04:50:07;100130.38;;;14.02;69.22
27805;BME280;15183;51.350;11.102;2022-10-23T04:52:34;100068.75;;;13.65;69.46
27805;BME280;15183;51.350;11.102;2022-10-23T04:55:00;100129.44;;;14.09;69.09
27805;BME280;15183;51.350;11.102;2022-10-23T04:57:30;100068.28;;;13.68;68.86
27805;BME280;15183;51.350;11.102;2022-10-23T04:59:56;100130.00;;;14.11;69.02
27805;BME280;15183;51.350;11.102;2022-10-23T05:02:23;100128.94;;;14.12;69.21
27805;BME280;15183;51.350;11.102;2022-10-23T05:04:49;100120.59;;;14.08;69.07
27805;BME280;15183;51.350;11.102;2022-10-23T05:07:16;100055.38;;;13.77;69.45
27805;BME280;15183;51.350;11.102;2022-10-23T05:09:42;100087.97;;;13.84;68.50
27805;BME280;15183;51.350;11.102;2022-10-23T05:12:09;100117.38;;;13.89;68.79
27805;BME280;15183;51.350;11.102;2022-10-23T05:14:35;100092.94;;;13.63;68.98
27805;BME280;15183;51.350;11.102;2022-10-23T05:17:40;100127.03;;;13.78;69.64
27805;BME280;15183;51.350;11.102;2022-10-23T05:20:12;100096.25;;;13.53;69.68
27805;BME280;15183;51.350;11.102;2022-10-23T05:22:41;100076.97;;;13.34;70.08
27805;BME280;15183;51.350;11.102;2022-10-23T05:25:10;100132.66;;;13.65;70.31
27805;BME280;15183;51.350;11.102;2022-10-23T05:27:37;100124.75;;;13.70;70.05
27805;BME280;15183;51.350;11.102;2022-10-23T05:30:05;100103.38;;;13.65;70.39
27805;BME280;15183;51.350;11.102;2022-10-23T05:32:32;100102.97;;;13.73;70.28
27805;BME280;15183;51.350;11.102;2022-10-23T05:35:02;100112.59;;;13.91;70.18
27805;BME280;15183;51.350;11.102;2022-10-23T05:37:32;100109.47;;;13.94;70.34
27805;BME280;15183;51.350;11.102;2022-10-23T05:39:58;100062.03;;;13.62;69.96
27805;BME280;15183;51.350;11.102;2022-10-23T05:42:25;100080.56;;;13.86;69.86
27805;BME280;15183;51.350;11.102;2022-10-23T05:44:51;100106.00;;;14.11;69.89
27805;BME280;15183;51.350;11.102;2022-10-23T05:47:17;100109.66;;;14.22;69.68
27805;BME280;15183;51.350;11.102;2022-10-23T05:49:44;100071.44;;;13.99;69.74
27805;BME280;15183;51.350;11.102;2022-10-23T05:52:11;100112.13;;;14.28;70.03
27805;BME280;15183;51.350;11.102;2022-10-23T05:54:38;100030.84;;;13.74;69.80
27805;BME280;15183;51.350;11.102;2022-10-23T05:57:04;100130.94;;;14.39;69.52
27805;BME280;15183;51.350;11.102;2022-10-23T05:59:31;100116.31;;;14.41;69.94
27805;BME280;15183;51.350;11.102;2022-10-23T06:01:57;100045.03;;;13.97;69.39
27805;BME280;15183;51.350;11.102;2022-10-23T06:04:24;100066.84;;;14.11;69.38
27805;BME280;15183;51.350;11.102;2022-10-23T06:06:50;100060.22;;;14.14;69.08
27805;BME280;15183;51.350;11.102;2022-10-23T06:09:17;100103.81;;;14.42;68.93
27805;BME280;15183;51.350;11.102;2022-10-23T06:11:43;100061.56;;;14.16;69.40
27805;BME280;15183;51.350;11.102;2022-10-23T06:14:10;100117.84;;;14.54;69.35
27805;BME280;15183;51.350;11.102;2022-10-23T06:16:36;100088.63;;;14.25;69.21
27805;BME280;15183;51.350;11.102;2022-10-23T06:19:03;100125.78;;;14.49;69.07
27805;BME280;15183;51.350;11.102;2022-10-23T06:21:29;100101.88;;;14.20;69.28
27805;BME280;15183;51.350;11.102;2022-10-23T06:23:56;100139.34;;;14.30;69.26
27805;BME280;15183;51.350;11.102;2022-10-23T06:26:22;100088.53;;;13.86;69.46
27805;BME280;15183;51.350;11.102;2022-10-23T06:28:49;100143.72;;;14.02;69.33
27805;BME280;15183;51.350;11.102;2022-10-23T06:31:16;100145.06;;;14.05;70.21
27805;BME280;15183;51.350;11.102;2022-10-23T06:33:44;100130.13;;;14.04;70.71
27805;BME280;15183;51.350;11.102;2022-10-23T06:36:10;100132.31;;;14.07;70.77
27805;BME280;15183;51.350;11.102;2022-10-23T06:38:38;100132.25;;;14.19;70.78
27805;BME280;15183;51.350;11.102;2022-10-23T06:41:15;100077.56;;;13.99;71.17
27805;BME280;15183;51.350;11.102;2022-10-23T06:43:42;100024.97;;;13.72;70.70
27805;BME280;15183;51.350;11.102;2022-10-23T06:46:08;100054.16;;;14.01;70.96
27805;BME280;15183;51.350;11.102;2022-10-23T06:48:36;100051.81;;;14.05;71.05
27805;BME280;15183;51.350;11.102;2022-10-23T06:51:08;100064.91;;;14.24;70.37
27805;BME280;15183;51.350;11.102;2022-10-23T06:53:35;100137.22;;;14.67;70.41
27805;BME280;15183;51.350;11.102;2022-10-23T06:56:04;100050.69;;;14.18;70.56
27805;BME280;15183;51.350;11.102;2022-10-23T06:58:36;100109.50;;;14.51;70.52
27805;BME280;15183;51.350;11.102;2022-10-23T07:01:11;100129.88;;;14.74;70.65
27805;BME280;15183;51.350;11.102;2022-10-23T07:03:38;100038.13;;;14.36;70.77
27805;BME280;15183;51.350;11.102;2022-10-23T07:06:08;100067.81;;;14.61;70.78
27805;BME280;15183;51.350;11.102;2022-10-23T07:08:36;100125.50;;;15.07;70.51
27805;BME280;15183;51.350;11.102;2022-10-23T07:11:09;100146.50;;;15.21;70.64
27805;BME280;15183;51.350;11.102;2022-10-23T07:13:37;100136.44;;;15.28;70.58
27805;BME280;15183;51.350;11.102;2022-10-23T07:16:16;100103.28;;;15.24;70.14
27805;BME280;15183;51.350;11.102;2022-10-23T07:18:45;100089.38;;;15.22;70.56
27805;BME280;15183;51.350;11.102;2022-10-23T07:21:14;100104.22;;;15.34;70.99
27805;BME280;15183;51.350;11.102;2022-10-23T07:23:41;100107.72;;;15.40;71.11
27805;BME280;15183;51.350;11.102;2022-10-23T07:26:15;100056.47;;;15.16;70.79
27805;BME280;15183;51.350;11.102;2022-10-23T07:28:45;100113.78;;;15.58;70.66
27805;BME280;15183;51.350;11.102;2022-10-23T07:31:12;100010.97;;;15.00;70.32
27805;BME280;15183;51.350;11.102;2022-10-23T07:33:39;100052.66;;;15.34;70.39
27805;BME280;15183;51.350;11.102;2022-10-23T07:36:08;100100.56;;;15.73;70.30
27805;BME280;15183;51.350;11.102;2022-10-23T07:38:34;100088.28;;;15.72;70.78
27805;BME280;15183;51.350;11.102;2022-10-23T07:41:02;100107.59;;;15.85;70.37
27805;BME280;15183;51.350;11.102;2022-10-23T07:43:29;100050.53;;;15.63;70.41
27805;BME280;15183;51.350;11.102;2022-10-23T07:45:55;100042.84;;;15.72;70.29
27805;BME280;15183;51.350;11.102;2022-10-23T07:48:22;100032.16;;;15.72;70.33
27805;BME280;15183;51.350;11.102;2022-10-23T07:50:49;100074.72;;;16.12;70.19
27805;BME280;15183;51.350;11.102;2022-10-23T07:53:20;100102.13;;;16.29;69.92
27805;BME280;15183;51.350;11.102;2022-10-23T07:55:56;100105.47;;;16.52;69.94
27805;BME280;15183;51.350;11.102;2022-10-23T07:58:24;100104.94;;;16.55;70.04
27805;BME280;15183;51.350;11.102;2022-10-23T08:00:58;100062.88;;;16.45;69.29
27805;BME280;15183;51.350;11.102;2022-10-23T08:03:27;100026.91;;;16.15;69.29
27805;BME280;15183;51.350;11.102;2022-10-23T08:05:54;100066.91;;;16.43;69.41
27805;BME280;15183;51.350;11.102;2022-10-23T08:08:22;100102.59;;;16.69;69.54
27805;BME280;15183;51.350;11.102;2022-10-23T08:10:51;100039.59;;;16.41;69.63
27805;BME280;15183;51.350;11.102;2022-10-23T08:13:19;100064.00;;;16.49;69.71
27805;BME280;15183;51.350;11.102;2022-10-23T08:15:47;100071.88;;;16.77;69.89
27805;BME280;15183;51.350;11.102;2022-10-23T08:18:15;100109.25;;;17.10;69.99
27805;BME280;15183;51.350;11.102;2022-10-23T08:20:46;100112.25;;;17.34;70.02
27805;BME280;15183;51.350;11.102;2022-10-23T08:23:15;100056.22;;;17.12;69.89
27805;BME280;15183;51.350;11.102;2022-10-23T08:25:44;100057.38;;;17.31;70.11
27805;BME280;15183;51.350;11.102;2022-10-23T08:28:11;100084.72;;;17.59;70.43
27805;BME280;15183;51.350;11.102;2022-10-23T08:30:40;99993.06;;;17.11;70.20
27805;BME280;15183;51.350;11.102;2022-10-23T08:33:09;100104.31;;;17.96;70.26
27805;BME280;15183;51.350;11.102;2022-10-23T08:35:37;100063.00;;;17.76;70.51
27805;BME280;15183;51.350;11.102;2022-10-23T08:38:05;100094.41;;;18.17;70.63
27805;BME280;15183;51.350;11.102;2022-10-23T08:40:33;100023.91;;;17.86;70.78
27805;BME280;15183;51.350;11.102;2022-10-23T08:45:50;100089.53;;;18.35;69.81
27805;BME280;15183;51.350;11.102;2022-10-23T08:48:47;100031.69;;;18.03;70.02
27805;BME280;15183;51.350;11.102;2022-10-23T08:51:37;100028.69;;;17.99;70.07
27805;BME280;15183;51.350;11.102;2022-10-23T08:54:38;100079.59;;;18.46;70.41
27805;BME280;15183;51.350;11.102;2022-10-23T08:57:13;100060.03;;;18.45;70.42
27805;BME280;15183;51.350;11.102;2022-10-23T08:59:46;100079.03;;;18.59;69.87
27805;BME280;15183;51.350;11.102;2022-10-23T09:02:42;100068.31;;;18.59;70.04
27805;BME280;15183;51.350;11.102;2022-10-23T09:05:24;99990.34;;;18.19;70.01
27805;BME280;15183;51.350;11.102;2022-10-23T09:13:30;100067.72;;;18.73;69.70
27805;BME280;15183;51.350;11.102;2022-10-23T09:18:49;100053.81;;;18.55;69.56
27805;BME280;15183;51.350;11.102;2022-10-23T09:21:17;100059.72;;;18.52;69.26
27805;BME280;15183;51.350;11.102;2022-10-23T09:23:43;100037.25;;;18.32;68.91
27805;BME280;15183;51.350;11.102;2022-10-23T09:26:17;100046.09;;;18.38;69.01
27805;BME280;15183;51.350;11.102;2022-10-23T09:28:56;100036.97;;;18.29;69.50
27805;BME280;15183;51.350;11.102;2022-10-23T09:31:26;100056.00;;;18.37;69.08
27805;BME280;15183;51.350;11.102;2022-10-23T09:34:00;100049.81;;;18.37;69.26
27805;BME280;15183;51.350;11.102;2022-10-23T09:36:28;100046.34;;;18.42;69.66
27805;BME280;15183;51.350;11.102;2022-10-23T09:38:57;100043.63;;;18.47;69.12
27805;BME280;15183;51.350;11.102;2022-10-23T09:41:36;100024.09;;;18.41;69.34
27805;BME280;15183;51.350;11.102;2022-10-23T09:46:54;100037.19;;;18.48;69.11
27805;BME280;15183;51.350;11.102;2022-10-23T09:49:29;100020.06;;;18.39;69.18
27805;BME280;15183;51.350;11.102;2022-10-23T09:54:59;100027.00;;;18.45;69.18
27805;BME280;15183;51.350;11.102;2022-10-23T09:57:39;100006.66;;;18.33;68.82
27805;BME280;15183;51.350;11.102;2022-10-23T10:02:53;99989.03;;;17.96;68.51
27805;BME280;15183;51.350;11.102;2022-10-23T10:05:36;100007.53;;;17.87;68.11
27805;BME280;15183;51.350;11.102;2022-10-23T10:25:49;100026.00;;;18.25;69.90
27805;BME280;15183;51.350;11.102;2022-10-23T10:31:41;100010.41;;;18.37;69.82
27805;BME280;15183;51.350;11.102;2022-10-23T10:34:19;99961.41;;;18.11;70.44
27805;BME280;15183;51.350;11.102;2022-10-23T10:36:55;99990.78;;;18.52;70.47
27805;BME280;15183;51.350;11.102;2022-10-23T10:39:24;99990.13;;;18.71;69.74
27805;BME280;15183;51.350;11.102;2022-10-23T10:45:06;99992.09;;;19.11;69.50
27805;BME280;15183;51.350;11.102;2022-10-23T10:48:38;99986.84;;;19.35;69.55
27805;BME280;15183;51.350;11.102;2022-10-23T10:51:13;99975.63;;;19.57;69.76
27805;BME280;15183;51.350;11.102;2022-10-23T10:54:00;99932.13;;;19.50;69.38
27805;BME280;15183;51.350;11.102;2022-10-23T10:56:32;99955.25;;;19.80;69.11
27805;BME280;15183;51.350;11.102;2022-10-23T10:59:04;99938.59;;;19.78;68.40
27805;BME280;15183;51.350;11.102;2022-10-23T11:07:22;99935.38;;;20.06;68.39
27805;BME280;15183;51.350;11.102;2022-10-23T11:09:54;99914.13;;;20.04;68.42
27805;BME280;15183;51.350;11.102;2022-10-23T11:12:25;99935.06;;;20.32;68.39
27805;BME280;15183;51.350;11.102;2022-10-23T11:14:52;99933.50;;;20.50;68.47
27805;BME280;15183;51.350;11.102;2022-10-23T11:17:52;99933.34;;;20.60;68.13
27805;BME280;15183;51.350;11.102;2022-10-23T11:21:18;99924.22;;;20.80;68.54
27805;BME280;15183;51.350;11.102;2022-10-23T11:24:24;99923.97;;;20.96;68.11
27805;BME280;15183;51.350;11.102;2022-10-23T11:30:24;99914.75;;;21.16;68.26
27805;BME280;15183;51.350;11.102;2022-10-23T11:36:19;99898.75;;;21.39;67.66
27805;BME280;15183;51.350;11.102;2022-10-23T11:38:49;99810.13;;;20.90;67.42
27805;BME280;15183;51.350;11.102;2022-10-23T11:41:24;99882.78;;;21.57;67.17
27805;BME280;15183;51.350;11.102;2022-10-23T11:43:57;99821.69;;;21.38;67.00
27805;BME280;15183;51.350;11.102;2022-10-23T11:46:36;99861.25;;;21.85;66.22
27805;BME280;15183;51.350;11.102;2022-10-23T11:49:17;99863.94;;;21.98;65.59
27805;BME280;15183;51.350;11.102;2022-10-23T11:51:45;99876.81;;;22.16;65.52
27805;BME280;15183;51.350;11.102;2022-10-23T11:59:32;99873.16;;;22.48;64.70
27805;BME280;15183;51.350;11.102;2022-10-23T12:02:08;99863.13;;;22.63;64.79
27805;BME280;15183;51.350;11.102;2022-10-23T12:04:50;99866.88;;;22.76;64.13
27805;BME280;15183;51.350;11.102;2022-10-23T12:07:26;99871.00;;;22.96;64.22
27805;BME280;15183;51.350;11.102;2022-10-23T12:10:06;99844.94;;;23.00;63.87
27805;BME280;15183;51.350;11.102;2022-10-23T12:12:42;99802.41;;;22.83;63.71
27805;BME280;15183;51.350;11.102;2022-10-23T12:15:21;99846.81;;;23.22;63.45
27805;BME280;15183;51.350;11.102;2022-10-23T12:17:50;99848.28;;;23.29;63.21
27805;BME280;15183;51.350;11.102;2022-10-23T12:20:35;99840.19;;;23.29;62.92
27805;BME280;15183;51.350;11.102;2022-10-23T12:39:36;99827.34;;;23.34;62.77
27805;BME280;15183;51.350;11.102;2022-10-23T12:42:14;99758.13;;;22.93;62.52
27805;BME280;15183;51.350;11.102;2022-10-23T12:44:42;99814.44;;;23.40;63.05
27805;BME280;15183;51.350;11.102;2022-10-23T12:47:16;99798.91;;;23.46;62.72
27805;BME280;15183;51.350;11.102;2022-10-23T12:49:49;99728.41;;;23.02;62.23
27805;BME280;15183;51.350;11.102;2022-10-23T12:52:18;99793.34;;;23.51;61.97
27805;BME280;15183;51.350;11.102;2022-10-23T12:54:44;99769.44;;;23.44;62.16
27805;BME280;15183;51.350;11.102;2022-10-23T12:57:24;99801.63;;;23.63;62.16
27805;BME280;15183;51.350;11.102;2022-10-23T12:59:59;99776.31;;;23.50;61.84
27805;BME280;15183;51.350;11.102;2022-10-23T13:02:30;99798.00;;;23.68;61.50
27805;BME280;15183;51.350;11.102;2022-10-23T13:05:01;99796.72;;;23.74;61.01
27805;BME280;15183;51.350;11.102;2022-10-23T13:07:32;99779.38;;;23.75;61.13
27805;BME280;15183;51.350;11.102;2022-10-23T13:09:59;99766.34;;;23.68;60.84
27805;BME280;15183;51.350;11.102;2022-10-23T13:12:32;99775.09;;;23.74;60.72
27805;BME280;15183;51.350;11.102;2022-10-23T13:17:43;99778.75;;;23.78;60.10
27805;BME280;15183;51.350;11.102;2022-10-23T13:20:24;99747.69;;;23.49;60.26
27805;BME280;15183;51.350;11.102;2022-10-23T13:25:59;99777.00;;;23.65;60.80
27805;BME280;15183;51.350;11.102;2022-10-23T13:28:46;99742.41;;;23.44;60.88
27805;BME280;15183;51.350;11.102;2022-10-23T13:33:48;99757.06;;;23.52;60.34
27805;BME280;15183;51.350;11.102;2022-10-23T13:36:22;99684.06;;;23.03;60.32
27805;BME280;15183;51.350;11.102;2022-10-23T13:41:40;99760.22;;;23.45;60.89
27805;BME280;15183;51.350;11.102;2022-10-23T13:44:13;99724.06;;;23.23;60.96
27805;BME280;15183;51.350;11.102;2022-10-23T13:46:41;99746.84;;;23.40;60.45
27805;BME280;15183;51.350;11.102;2022-10-23T13:49:08;99743.38;;;23.39;60.84
27805;BME280;15183;51.350;11.102;2022-10-23T13:51:53;99733.81;;;23.42;61.03
27805;BME280;15183;51.350;11.102;2022-10-23T13:54:26;99706.88;;;23.19;60.84
27805;BME280;15183;51.350;11.102;2022-10-23T13:56:54;99634.22;;;22.68;60.68
27805;BME280;15183;51.350;11.102;2022-10-23T13:59:22;99738.41;;;23.33;61.26
27805;BME280;15183;51.350;11.102;2022-10-23T14:01:50;99743.81;;;23.33;60.88
27805;BME280;15183;51.350;11.102;2022-10-23T14:04:18;99722.47;;;23.22;61.16
27805;BME280;15183;51.350;11.102;2022-10-23T14:06:45;99729.34;;;23.29;61.03
27805;BME280;15183;51.350;11.102;2022-10-23T14:09:17;99711.59;;;23.13;61.16
27805;BME280;15183;51.350;11.102;2022-10-23T14:11:43;99728.72;;;23.32;61.57
27805;BME280;15183;51.350;11.102;2022-10-23T14:14:10;99731.41;;;23.32;61.48
27805;BME280;15183;51.350;11.102;2022-10-23T14:16:37;99703.97;;;23.16;61.83
27805;BME280;15183;51.350;11.102;2022-10-23T14:19:03;99722.97;;;23.24;62.19
27805;BME280;15183;51.350;11.102;2022-10-23T14:21:30;99707.78;;;23.15;61.84
27805;BME280;15183;51.350;11.102;2022-10-23T14:23:56;99699.34;;;23.07;61.77
27805;BME280;15183;51.350;11.102;2022-10-23T14:26:25;99703.66;;;23.08;62.15
27805;BME280;15183;51.350;11.102;2022-10-23T14:28:56;99709.06;;;23.08;61.86
27805;BME280;15183;51.350;11.102;2022-10-23T14:31:23;99688.47;;;22.90;61.86
27805;BME280;15183;51.350;11.102;2022-10-23T14:33:54;99670.75;;;22.66;61.44
27805;BME280;15183;51.350;11.102;2022-10-23T14:36:22;99674.25;;;22.66;62.31
27805;BME280;15183;51.350;11.102;2022-10-23T14:38:48;99692.13;;;22.85;61.93
27805;BME280;15183;51.350;11.102;2022-10-23T14:41:16;99675.69;;;22.73;61.66
27805;BME280;15183;51.350;11.102;2022-10-23T14:43:43;99698.78;;;22.79;62.31
27805;BME280;15183;51.350;11.102;2022-10-23T14:46:17;99652.13;;;22.33;62.30
27805;BME280;15183;51.350;11.102;2022-10-23T14:48:44;99712.06;;;22.66;62.58
27805;BME280;15183;51.350;11.102;2022-10-23T14:51:25;99623.63;;;22.18;62.53
27805;BME280;15183;51.350;11.102;2022-10-23T14:54:01;99624.50;;;22.04;62.70
27805;BME280;15183;51.350;11.102;2022-10-23T14:56:31;99679.97;;;22.42;63.03
27805;BME280;15183;51.350;11.102;2022-10-23T14:58:58;99683.47;;;22.43;62.87
27805;BME280;15183;51.350;11.102;2022-10-23T15:01:42;99671.50;;;22.35;62.99
27805;BME280;15183;51.350;11.102;2022-10-23T15:04:09;99655.88;;;22.23;62.54
27805;BME280;15183;51.350;11.102;2022-10-23T15:06:35;99674.50;;;22.33;62.98
27805;BME280;15183;51.350;11.102;2022-10-23T15:09:03;99663.50;;;22.21;63.17
27805;BME280;15183;51.350;11.102;2022-10-23T15:11:30;99631.44;;;21.96;63.11
27805;BME280;15183;51.350;11.102;2022-10-23T15:13:58;99651.25;;;22.15;63.09